createdAt,value
2023-03-30T00:00:37.702Z,99825.31
2023-03-30T00:01:54.677Z,99827.99
2023-03-30T00:02:58.288Z,99821.75
2023-03-30T00:04:02.127Z,99821.75
2023-03-30T00:05:06.699Z,99821.75
2023-03-30T00:06:11.823Z,99822.62
2023-03-30T00:07:15.477Z,99824.44
2023-03-30T00:08:18.437Z,99824.44
2023-03-30T00:09:22.198Z,99825.31
2023-03-30T00:10:27.298Z,99820.91
2023-03-30T00:11:32.996Z,99817.37
2023-03-30T00:12:37.248Z,99821.75
2023-03-30T00:13:41.533Z,99826.27
2023-03-30T00:14:45.368Z,99821.75
2023-03-30T00:15:50.691Z,99821.75
2023-03-30T00:16:54.528Z,99821.75
2023-03-30T00:17:57.598Z,99814.69
2023-03-30T00:19:00.094Z,99819.06
2023-03-30T00:20:06.003Z,99817.37
2023-03-30T00:21:11.532Z,99817.37
2023-03-30T00:22:14.428Z,99813.81
2023-03-30T00:23:17.974Z,99820.91
2023-03-30T00:24:20.608Z,99819.19
2023-03-30T00:25:23.199Z,99823.59
2023-03-30T00:26:27.116Z,99821.88
2023-03-30T00:27:30.385Z,99826.27
2023-03-30T00:28:34.127Z,99829.92
2023-03-30T00:29:40.012Z,99831.64
2023-03-30T00:30:43.724Z,99826.27
2023-03-30T00:31:47.436Z,99825.44
2023-03-30T00:32:51.442Z,99814.69
2023-03-30T00:33:55.106Z,99812.01
2023-03-30T00:34:57.635Z,99812.01
2023-03-30T00:36:01.577Z,99819.06
2023-03-30T00:37:04.776Z,99820.91
2023-03-30T00:38:07.899Z,99823.59
2023-03-30T00:39:11.215Z,99823.59
2023-03-30T00:41:33.275Z,99812.98
2023-03-30T00:42:36.685Z,99815.53
2023-03-30T00:45:29.017Z,99820.08
2023-03-30T00:46:32.800Z,99824.55
2023-03-30T00:47:42.556Z,99830.05
2023-03-30T00:48:48.128Z,99827.36
2023-03-30T00:49:52.239Z,99818.47
2023-03-30T00:51:01.662Z,99822.11
2023-03-30T00:52:05.909Z,99816.75
2023-03-30T00:53:29.842Z,99826.64
2023-03-30T00:54:32.423Z,99822.11
2023-03-30T00:55:36.108Z,99822.96
2023-03-30T00:56:39.663Z,99823.95
2023-03-30T00:57:43.966Z,99825.77
2023-03-30T00:58:47.638Z,99830.30
2023-03-30T00:59:51.626Z,99828.45
2023-03-30T01:00:54.967Z,99825.77
2023-03-30T01:02:00.378Z,99826.77
2023-03-30T01:03:04.088Z,99829.33
2023-03-30T01:04:08.961Z,99829.33
2023-03-30T01:05:13.272Z,99829.33
2023-03-30T01:06:20.947Z,99830.17
2023-03-30T01:07:24.716Z,99835.54
2023-03-30T01:08:32.003Z,99831.14
2023-03-30T01:09:36.464Z,99843.59
2023-03-30T01:10:39.835Z,99844.44
2023-03-30T01:11:42.968Z,99839.06
2023-03-30T01:12:45.773Z,99841.03
2023-03-30T01:13:51.469Z,99838.34
2023-03-30T01:14:53.829Z,99845.44
2023-03-30T01:16:22.407Z,99843.59
2023-03-30T01:17:44.347Z,99840.91
2023-03-30T01:20:41.521Z,99842.89
2023-03-30T01:22:20.582Z,99843.72
2023-03-30T01:23:38.172Z,99835.91
2023-03-30T01:25:04.548Z,99848.58
2023-03-30T01:26:31.096Z,99846.86
2023-03-30T01:28:07.575Z,99849.78
2023-03-30T01:29:16.701Z,99854.44
2023-03-30T01:30:37.751Z,99848.31
2023-03-30T01:32:01.148Z,99859.13
2023-03-30T01:33:14.047Z,99863.66
2023-03-30T01:34:38.545Z,99857.53
2023-03-30T01:35:53.787Z,99857.66
2023-03-30T01:37:12.008Z,99863.02
2023-03-30T01:38:35.985Z,99869.36
2023-03-30T01:39:59.985Z,99855.94
2023-03-30T01:41:10.423Z,99864.11
2023-03-30T01:42:19.183Z,99863.27
2023-03-30T01:45:01.757Z,99866.89
2023-03-30T01:46:26.122Z,99866.80
2023-03-30T01:47:51.423Z,99868.63
2023-03-30T01:49:24.659Z,99867.67
2023-03-30T01:50:49.784Z,99872.04
2023-03-30T01:52:07.801Z,99867.79
2023-03-30T01:53:26.212Z,99867.79
2023-03-30T01:54:36.399Z,99871.31
2023-03-30T01:57:18.581Z,99875.03
2023-03-30T01:59:55.158Z,99880.40
2023-03-30T02:01:00.846Z,99875.84
2023-03-30T02:02:06.609Z,99878.52
2023-03-30T02:03:12.886Z,99881.93
2023-03-30T02:04:15.816Z,99881.09
2023-03-30T02:05:18.321Z,99884.50
2023-03-30T02:06:33.099Z,99880.97
2023-03-30T02:07:35.767Z,99884.38
2023-03-30T02:08:38.530Z,99881.57
2023-03-30T02:09:41.771Z,99878.83
2023-03-30T02:10:44.409Z,99884.20
2023-03-30T02:11:49.107Z,99891.26
2023-03-30T02:12:52.022Z,99885.77
2023-03-30T02:13:55.251Z,99893.82
2023-03-30T02:15:04.443Z,99888.37
2023-03-30T02:16:15.840Z,99889.20
2023-03-30T02:17:25.475Z,99898.98
2023-03-30T02:18:28.261Z,99891.89
2023-03-30T02:19:31.137Z,99897.02
2023-03-30T02:20:34.168Z,99895.30
2023-03-30T02:21:37.975Z,99898.86
2023-03-30T02:22:40.977Z,99888.45
2023-03-30T02:23:44.808Z,99888.45
2023-03-30T02:24:49.660Z,99897.02
2023-03-30T02:25:54.773Z,99894.22
2023-03-30T02:26:59.134Z,99900.46
2023-03-30T02:28:01.890Z,99897.78
2023-03-30T02:29:04.506Z,99907.52
2023-03-30T02:30:08.936Z,99907.52
2023-03-30T02:31:13.141Z,99903.99
2023-03-30T02:32:46.778Z,99910.08
2023-03-30T02:34:11.649Z,99900.34
2023-03-30T02:36:54.731Z,99912.92
2023-03-30T02:39:51.062Z,99902.30
2023-03-30T02:41:22.294Z,99904.95
2023-03-30T02:42:31.599Z,99905.08
2023-03-30T02:45:28.117Z,99892.77
2023-03-30T02:47:01.047Z,99905.31
2023-03-30T02:48:41.765Z,99901.78
2023-03-30T02:51:21.412Z,99901.94
2023-03-30T02:52:47.847Z,99900.19
2023-03-30T02:54:01.928Z,99903.84
2023-03-30T02:56:39.822Z,99904.84
2023-03-30T02:57:58.971Z,99917.25
2023-03-30T02:59:05.519Z,99912.81
2023-03-30T03:00:13.131Z,99911.05
2023-03-30T03:01:39.146Z,99918.98
2023-03-30T03:02:49.509Z,99916.30
2023-03-30T03:04:00.433Z,99906.52
2023-03-30T03:05:07.291Z,99918.98
2023-03-30T03:06:13.639Z,99919.94
2023-03-30T03:07:19.775Z,99919.09
2023-03-30T03:08:27.493Z,99921.78
2023-03-30T03:09:30.356Z,99924.47
2023-03-30T03:10:36.355Z,99927.99
2023-03-30T03:11:39.196Z,99931.52
2023-03-30T03:12:43.688Z,99933.36
2023-03-30T03:13:47.381Z,99928.84
2023-03-30T03:14:49.973Z,99928.92
2023-03-30T03:15:55.053Z,99931.52
2023-03-30T03:16:57.779Z,99932.40
2023-03-30T03:18:02.221Z,99939.45
2023-03-30T03:19:05.539Z,99948.39
2023-03-30T03:20:09.679Z,99943.86
2023-03-30T03:21:13.364Z,99946.43
2023-03-30T03:22:17.873Z,99943.62
2023-03-30T03:23:21.484Z,99948.88
2023-03-30T03:24:27.525Z,99942.66
2023-03-30T03:25:48.168Z,99943.42
2023-03-30T03:26:52.941Z,99950.59
2023-03-30T03:27:55.688Z,99946.10
2023-03-30T03:29:01.032Z,99943.42
2023-03-30T03:30:05.148Z,99946.95
2023-03-30T03:31:10.162Z,99948.55
2023-03-30T03:32:13.914Z,99953.92
2023-03-30T03:33:19.922Z,99946.70
2023-03-30T03:34:29.855Z,99953.80
2023-03-30T03:35:34.512Z,99947.59
2023-03-30T03:36:38.924Z,99949.27
2023-03-30T03:37:41.570Z,99951.11
2023-03-30T03:38:45.851Z,99954.64
2023-03-30T03:39:49.041Z,99942.55
2023-03-30T03:40:52.977Z,99942.55
2023-03-30T03:41:56.193Z,99948.31
2023-03-30T03:42:58.896Z,99951.96
2023-03-30T03:44:01.880Z,99958.20
2023-03-30T03:45:05.582Z,99955.40
2023-03-30T03:46:08.903Z,99956.25
2023-03-30T03:47:14.562Z,99955.40
2023-03-30T03:48:18.302Z,99951.84
2023-03-30T03:49:23.274Z,99954.44
2023-03-30T03:50:26.522Z,99949.16
2023-03-30T03:51:30.545Z,99959.80
2023-03-30T03:52:34.758Z,99954.44
2023-03-30T03:53:37.437Z,99958.81
2023-03-30T03:54:42.442Z,99959.80
2023-03-30T03:55:46.223Z,99957.97
2023-03-30T03:56:50.964Z,99960.77
2023-03-30T03:57:54.052Z,99968.83
2023-03-30T03:58:56.902Z,99961.61
2023-03-30T03:59:59.334Z,99951.23
2023-03-30T04:01:03.809Z,99951.23
2023-03-30T04:02:06.981Z,99956.13
2023-03-30T04:03:09.809Z,99959.69
2023-03-30T04:04:13.590Z,99962.37
2023-03-30T04:05:15.969Z,99954.31
2023-03-30T04:06:19.092Z,99951.63
2023-03-30T04:07:21.723Z,99953.32
2023-03-30T04:08:25.789Z,99956.00
2023-03-30T04:09:29.200Z,99956.00
2023-03-30T04:10:50.989Z,99953.32
2023-03-30T04:13:14.807Z,99955.20
2023-03-30T04:14:25.716Z,99956.00
2023-03-30T04:15:30.906Z,99959.56
2023-03-30T04:16:42.499Z,99955.16
2023-03-30T04:19:05.433Z,99960.56
2023-03-30T04:20:12.162Z,99960.53
2023-03-30T04:21:17.269Z,99962.37
2023-03-30T04:22:34.993Z,99969.44
2023-03-30T04:23:56.614Z,99962.25
2023-03-30T04:26:28.019Z,99965.90
2023-03-30T04:27:44.518Z,99965.06
2023-03-30T04:28:55.039Z,99964.18
2023-03-30T04:30:03.892Z,99962.48
2023-03-30T04:31:26.170Z,99971.52
2023-03-30T04:33:54.066Z,99969.95
2023-03-30T04:35:16.079Z,99984.17
2023-03-30T04:36:22.089Z,99978.08
2023-03-30T04:37:33.207Z,99970.03
2023-03-30T04:39:01.909Z,99978.08
2023-03-30T04:40:14.148Z,99971.95
2023-03-30T04:42:51.561Z,99990.07
2023-03-30T04:43:55.810Z,99978.31
2023-03-30T04:45:06.279Z,99974.88
2023-03-30T04:46:11.477Z,99976.72
2023-03-30T04:47:15.192Z,99983.77
2023-03-30T04:48:25.429Z,99975.72
2023-03-30T04:49:42.807Z,99975.72
2023-03-30T04:50:54.700Z,99978.41
2023-03-30T04:52:08.620Z,99981.09
2023-03-30T04:54:27.857Z,99978.48
2023-03-30T04:56:47.433Z,99992.87
2023-03-30T04:58:01.800Z,99975.72
2023-03-30T04:59:11.711Z,99989.14
2023-03-30T05:00:17.829Z,99975.72
2023-03-30T05:01:20.971Z,99982.93
2023-03-30T05:02:36.609Z,99985.61
2023-03-30T05:03:42.887Z,99985.50
2023-03-30T05:04:50.480Z,99990.02
2023-03-30T05:06:13.219Z,99987.34
2023-03-30T05:07:18.070Z,99982.81
2023-03-30T05:09:40.821Z,99982.25
2023-03-30T05:10:54.722Z,99988.42
2023-03-30T05:12:16.110Z,99991.10
2023-03-30T05:14:45.476Z,99984.94
2023-03-30T05:17:08.472Z,99993.11
2023-03-30T05:18:14.447Z,100000.12
2023-03-30T05:19:21.768Z,99993.91
2023-03-30T05:20:30.504Z,99990.26
2023-03-30T05:21:32.930Z,99996.47
2023-03-30T05:22:50.178Z,99997.31
2023-03-30T05:24:12.702Z,99998.19
2023-03-30T05:25:33.420Z,99989.38
2023-03-30T05:26:43.618Z,99995.63
2023-03-30T05:29:17.612Z,99988.70
2023-03-30T05:30:37.244Z,99990.46
2023-03-30T05:31:49.031Z,99988.77
2023-03-30T05:33:10.568Z,99988.77
2023-03-30T05:34:30.264Z,99995.10
2023-03-30T05:35:35.320Z,99986.20
2023-03-30T05:36:41.826Z,99988.94
2023-03-30T05:37:47.783Z,99981.77
2023-03-30T05:39:06.204Z,99988.09
2023-03-30T05:40:26.498Z,99991.63
2023-03-30T05:41:42.890Z,99992.50
2023-03-30T05:42:50.138Z,99980.16
2023-03-30T05:45:10.762Z,99987.58
2023-03-30T05:46:32.268Z,99991.02
2023-03-30T05:47:37.652Z,99983.92
2023-03-30T05:48:40.103Z,99982.09
2023-03-30T05:49:57.029Z,99990.14
2023-03-30T05:51:02.618Z,99995.50
2023-03-30T05:52:07.054Z,99993.70
2023-03-30T05:54:38.691Z,99987.58
2023-03-30T05:56:00.495Z,99996.27
2023-03-30T05:57:18.422Z,99997.23
2023-03-30T05:58:39.745Z,99994.55
2023-03-30T05:59:51.558Z,99991.98
2023-03-30T06:00:58.692Z,99991.98
2023-03-30T06:02:03.250Z,99991.13
2023-03-30T06:03:05.615Z,99992.94
2023-03-30T06:04:08.880Z,99997.34
2023-03-30T06:05:27.857Z,99994.66
2023-03-30T06:06:32.717Z,99994.66
2023-03-30T06:07:37.401Z,99996.38
2023-03-30T06:08:41.440Z,100001.75
2023-03-30T06:09:44.599Z,99996.38
2023-03-30T06:10:58.541Z,100003.47
2023-03-30T06:12:03.139Z,99999.80
2023-03-30T06:13:06.435Z,99999.91
2023-03-30T06:14:15.535Z,99997.98
2023-03-30T06:15:20.543Z,100007.73
2023-03-30T06:16:25.961Z,100004.20
2023-03-30T06:17:29.084Z,99996.99
2023-03-30T06:18:32.793Z,100004.20
2023-03-30T06:19:40.745Z,100006.89
2023-03-30T06:20:47.120Z,99996.15
2023-03-30T06:21:51.108Z,99997.98
2023-03-30T06:23:11.884Z,99998.83
2023-03-30T06:24:15.637Z,99998.83
2023-03-30T06:25:23.091Z,99996.15
2023-03-30T06:26:26.712Z,99998.95
2023-03-30T06:27:33.484Z,100002.36
2023-03-30T06:28:36.157Z,99995.30
2023-03-30T06:29:38.657Z,100017.73
2023-03-30T06:30:42.161Z,100002.48
2023-03-30T06:31:46.086Z,99997.11
2023-03-30T06:34:16.066Z,100002.69
2023-03-30T06:35:20.104Z,99998.83
2023-03-30T06:36:45.266Z,100002.48
2023-03-30T06:37:31.177Z,99999.80
2023-03-30T06:38:34.763Z,100006.89
2023-03-30T06:39:38.040Z,100012.25
2023-03-30T06:40:43.556Z,100002.48
2023-03-30T06:41:47.433Z,99994.42
2023-03-30T06:42:57.845Z,99996.15
2023-03-30T06:44:03.841Z,99998.83
2023-03-30T06:45:09.636Z,99996.15
2023-03-30T06:46:15.272Z,100002.36
2023-03-30T06:47:22.433Z,100024.71
2023-03-30T06:48:25.808Z,99998.95
2023-03-30T06:49:31.640Z,99998.83
2023-03-30T06:52:03.329Z,100005.38
2023-03-30T06:53:19.140Z,100002.59
2023-03-30T06:54:22.762Z,99996.38
2023-03-30T06:55:27.590Z,100020.54
2023-03-30T06:56:31.301Z,100005.28
2023-03-30T06:57:35.985Z,100012.48
2023-03-30T06:58:39.015Z,100013.33
2023-03-30T06:59:42.616Z,100000.79
2023-03-30T07:00:58.517Z,100000.79
2023-03-30T07:02:04.110Z,100002.59
2023-03-30T07:03:20.263Z,99995.42
2023-03-30T07:04:30.452Z,100011.61
2023-03-30T07:05:38.855Z,99993.81
2023-03-30T07:06:43.948Z,100000.14
2023-03-30T07:07:48.905Z,99988.56
2023-03-30T07:08:51.989Z,100007.35
2023-03-30T07:09:56.529Z,100002.10
2023-03-30T07:11:01.222Z,99994.89
2023-03-30T07:12:06.657Z,99985.13
2023-03-30T07:13:11.078Z,100006.59
2023-03-30T07:14:16.395Z,99984.28
2023-03-30T07:15:20.367Z,99999.50
2023-03-30T07:16:25.186Z,99995.86
2023-03-30T07:17:29.897Z,99993.17
2023-03-30T07:18:33.908Z,99991.37
2023-03-30T07:19:36.539Z,99990.48
2023-03-30T07:20:39.071Z,99986.00
2023-03-30T07:21:43.727Z,99979.23
2023-03-30T07:22:47.817Z,99979.23
2023-03-30T07:23:51.641Z,99988.69
2023-03-30T07:24:56.666Z,99971.70
2023-03-30T07:26:01.528Z,99980.63
2023-03-30T07:27:06.841Z,99998.54
2023-03-30T07:28:12.077Z,99994.13
2023-03-30T07:29:15.730Z,99990.61
2023-03-30T07:30:22.745Z,99989.64
2023-03-30T07:31:28.407Z,99998.66
2023-03-30T07:32:33.432Z,100003.18
2023-03-30T07:33:37.183Z,99983.40
2023-03-30T07:34:40.124Z,99994.25
2023-03-30T07:35:45.724Z,99975.47
2023-03-30T07:36:49.330Z,99983.52
2023-03-30T07:38:01.992Z,99968.29
2023-03-30T07:39:00.123Z,99971.82
2023-03-30T07:40:05.605Z,99970.97
2023-03-30T07:41:09.598Z,99974.50
2023-03-30T07:42:12.912Z,99971.94
2023-03-30T07:43:16.870Z,99989.88
2023-03-30T07:44:21.823Z,99978.27
2023-03-30T07:45:24.471Z,99986.31
2023-03-30T07:46:27.793Z,99983.63
2023-03-30T07:47:30.622Z,99978.27
2023-03-30T07:48:35.603Z,99990.84
2023-03-30T07:49:38.391Z,99988.16
2023-03-30T07:50:41.736Z,99994.37
2023-03-30T07:51:44.658Z,99980.10
2023-03-30T07:52:50.930Z,99983.63
2023-03-30T07:53:54.714Z,99974.73
2023-03-30T07:55:00.597Z,99980.95
2023-03-30T07:56:06.260Z,99976.55
2023-03-30T07:57:11.588Z,99984.71
2023-03-30T07:58:16.301Z,99972.28
2023-03-30T07:59:20.116Z,99983.02
2023-03-30T08:00:25.138Z,99990.20
2023-03-30T08:01:35.760Z,99972.38
2023-03-30T08:02:50.887Z,99986.78
2023-03-30T08:03:54.186Z,99986.90
2023-03-30T08:04:58.196Z,99981.73
2023-03-30T08:06:05.308Z,99981.73
2023-03-30T08:07:13.930Z,99975.64
2023-03-30T08:08:17.370Z,99969.42
2023-03-30T08:09:20.469Z,99965.02
2023-03-30T08:10:23.298Z,99956.97
2023-03-30T08:11:26.040Z,99966.83
2023-03-30T08:12:28.792Z,99962.45
2023-03-30T08:13:33.296Z,99955.37
2023-03-30T08:14:36.352Z,99957.20
2023-03-30T08:15:40.126Z,99937.55
2023-03-30T08:16:44.522Z,99938.42
2023-03-30T08:17:50.608Z,99946.56
2023-03-30T08:18:54.355Z,99935.83
2023-03-30T08:19:56.986Z,99940.34
2023-03-30T08:21:00.425Z,99934.98
2023-03-30T08:22:04.560Z,99944.87
2023-03-30T08:23:08.360Z,99941.31
2023-03-30T08:24:11.489Z,99943.98
2023-03-30T08:25:15.134Z,99942.19
2023-03-30T08:26:18.072Z,99937.78
2023-03-30T08:27:21.393Z,99941.31
2023-03-30T08:28:24.521Z,99925.21
2023-03-30T08:29:26.887Z,99938.63
2023-03-30T08:30:30.790Z,99919.84
2023-03-30T08:31:34.007Z,99929.84
2023-03-30T08:32:36.667Z,99933.37
2023-03-30T08:33:40.569Z,99928.01
2023-03-30T08:34:45.086Z,99927.16
2023-03-30T08:35:48.848Z,99928.01
2023-03-30T08:36:52.357Z,99921.80
2023-03-30T08:37:55.013Z,99931.69
2023-03-30T08:38:57.718Z,99935.21
2023-03-30T08:40:00.703Z,99924.59
2023-03-30T08:41:22.189Z,99921.91
2023-03-30T08:42:31.537Z,99922.76
2023-03-30T08:43:53.029Z,99930.81
2023-03-30T08:44:56.439Z,99930.92
2023-03-30T08:46:00.392Z,99923.84
2023-03-30T08:47:04.851Z,99934.56
2023-03-30T08:49:27.636Z,99925.85
2023-03-30T08:50:32.819Z,99922.23
2023-03-30T08:51:36.806Z,99916.02
2023-03-30T08:52:41.503Z,99926.64
2023-03-30T08:53:44.387Z,99922.23
2023-03-30T08:54:48.686Z,99933.84
2023-03-30T08:56:12.005Z,99947.14
2023-03-30T08:57:33.637Z,99944.57
2023-03-30T09:00:29.789Z,99923.17
2023-03-30T09:01:51.300Z,99922.23
2023-03-30T09:03:15.507Z,99924.07
2023-03-30T09:04:25.761Z,99925.03
2023-03-30T09:05:34.872Z,99919.78
2023-03-30T09:06:57.400Z,99922.58
2023-03-30T09:08:19.404Z,99923.55
2023-03-30T09:09:24.718Z,99928.17
2023-03-30T09:10:31.410Z,99925.50
2023-03-30T09:11:36.175Z,99946.19
2023-03-30T09:12:50.525Z,99924.73
2023-03-30T09:13:53.925Z,99923.89
2023-03-30T09:15:00.675Z,99920.36
2023-03-30T09:16:10.997Z,99925.73
2023-03-30T09:17:16.846Z,99934.63
2023-03-30T09:18:23.114Z,99919.38
2023-03-30T09:19:29.891Z,99913.28
2023-03-30T09:20:33.505Z,99911.33
2023-03-30T09:21:36.157Z,99916.69
2023-03-30T09:22:41.176Z,99913.05
2023-03-30T09:23:44.062Z,99925.50
2023-03-30T09:24:47.437Z,99910.25
2023-03-30T09:26:05.938Z,99910.13
2023-03-30T09:27:16.329Z,99910.13
2023-03-30T09:28:23.860Z,99913.58
2023-03-30T09:29:31.365Z,99906.48
2023-03-30T09:30:50.377Z,99902.84
2023-03-30T09:32:06.851Z,99906.61
2023-03-30T09:33:23.013Z,99903.80
2023-03-30T09:34:27.542Z,99889.55
2023-03-30T09:35:40.611Z,99883.31
2023-03-30T09:36:50.426Z,99908.44
2023-03-30T09:37:55.026Z,99891.47
2023-03-30T09:38:57.981Z,99901.36
2023-03-30T09:40:05.714Z,99890.62
2023-03-30T09:41:30.377Z,99912.93
2023-03-30T09:42:41.441Z,99886.98
2023-03-30T09:43:45.832Z,99891.47
2023-03-30T09:45:08.436Z,99903.08
2023-03-30T09:46:14.398Z,99907.56
2023-03-30T09:47:35.836Z,99884.30
2023-03-30T09:49:58.351Z,99882.64
2023-03-30T09:51:02.391Z,99875.50
2023-03-30T09:52:07.001Z,99886.23
2023-03-30T09:53:24.723Z,99871.01
2023-03-30T09:54:39.052Z,99854.91
2023-03-30T09:55:41.608Z,99882.58
2023-03-30T09:56:49.146Z,99860.28
2023-03-30T09:57:52.118Z,99881.73
2023-03-30T09:58:55.506Z,99870.13
2023-03-30T10:00:00.299Z,99858.44
2023-03-30T10:01:10.957Z,99862.96
2023-03-30T10:02:19.936Z,99874.53
2023-03-30T10:03:23.237Z,99851.23
2023-03-30T10:04:27.929Z,99875.38
2023-03-30T10:05:31.394Z,99854.80
2023-03-30T10:06:40.193Z,99849.44
2023-03-30T10:07:43.188Z,99853.92
2023-03-30T10:08:51.178Z,99858.33
2023-03-30T10:09:54.076Z,99858.33
2023-03-30T10:10:58.391Z,99844.91
2023-03-30T10:12:01.477Z,99876.25
2023-03-30T10:13:16.221Z,99859.17
2023-03-30T10:14:33.668Z,99851.13
2023-03-30T10:15:38.555Z,99855.52
2023-03-30T10:16:42.180Z,99843.08
2023-03-30T10:17:48.433Z,99855.52
2023-03-30T10:18:53.320Z,99869.78
2023-03-30T10:20:26.508Z,99856.37
2023-03-30T10:21:30.728Z,99851.88
2023-03-30T10:22:35.134Z,99859.05
2023-03-30T10:23:44.615Z,99852.00
2023-03-30T10:24:56.757Z,99841.39
2023-03-30T10:26:03.187Z,99847.59
2023-03-30T10:27:12.116Z,99836.02
2023-03-30T10:28:23.642Z,99844.07
2023-03-30T10:29:29.749Z,99858.44
2023-03-30T10:30:34.590Z,99860.16
2023-03-30T10:31:38.339Z,99839.55
2023-03-30T10:32:46.273Z,99838.70
2023-03-30T10:33:49.229Z,99839.55
2023-03-30T10:35:01.012Z,99858.44
2023-03-30T10:36:05.375Z,99837.83
2023-03-30T10:38:30.705Z,99852.17
2023-03-30T10:39:34.080Z,99853.80
2023-03-30T10:40:41.412Z,99854.80
2023-03-30T10:41:44.898Z,99845.76
2023-03-30T10:42:50.285Z,99854.80
2023-03-30T10:43:53.190Z,99843.95
2023-03-30T10:44:58.013Z,99844.27
2023-03-30T10:47:49.809Z,99847.53
2023-03-30T10:49:02.470Z,99845.55
2023-03-30T10:50:32.157Z,99856.37
2023-03-30T10:53:36.603Z,99844.96
2023-03-30T10:56:16.491Z,99874.70
2023-03-30T10:57:21.985Z,99851.36
2023-03-30T10:59:56.796Z,99842.75
2023-03-30T11:02:43.068Z,99836.52
2023-03-30T11:03:47.821Z,99856.00
2023-03-30T11:04:52.048Z,99829.17
2023-03-30T11:06:08.556Z,99845.27
2023-03-30T11:07:15.840Z,99846.11
2023-03-30T11:08:24.196Z,99828.30
2023-03-30T11:09:30.642Z,99842.47
2023-03-30T11:10:36.685Z,99829.06
2023-03-30T11:12:59.159Z,99828.27
2023-03-30T11:14:03.312Z,99840.63
2023-03-30T11:16:56.751Z,99821.91
2023-03-30T11:18:22.539Z,99817.37
2023-03-30T11:19:28.713Z,99829.06
2023-03-30T11:20:35.185Z,99850.39
2023-03-30T11:23:31.185Z,99817.53
2023-03-30T11:26:00.905Z,99826.66
2023-03-30T11:27:28.879Z,99829.17
2023-03-30T11:28:44.839Z,99827.45
2023-03-30T11:30:17.420Z,99815.01
2023-03-30T11:31:32.846Z,99833.90
2023-03-30T11:32:42.880Z,99839.38
2023-03-30T11:33:49.132Z,99814.52
2023-03-30T11:35:00.954Z,99834.25
2023-03-30T11:37:35.389Z,99818.45
2023-03-30T11:38:58.307Z,99810.35
2023-03-30T11:40:17.798Z,99812.16
2023-03-30T11:41:24.000Z,99825.56
2023-03-30T11:42:32.547Z,99813.12
2023-03-30T11:43:34.940Z,99814.00
2023-03-30T11:44:37.890Z,99807.75
2023-03-30T11:45:44.187Z,99793.50
2023-03-30T11:47:03.502Z,99798.75
2023-03-30T11:48:25.345Z,99790.70
2023-03-30T11:49:38.081Z,99799.62
2023-03-30T11:51:01.442Z,99802.31
2023-03-30T11:52:29.008Z,99818.48
2023-03-30T11:55:24.308Z,99803.55
2023-03-30T11:56:46.393Z,99800.06
2023-03-30T11:57:58.521Z,99805.55
2023-03-30T11:59:07.299Z,99790.39
2023-03-30T12:00:34.034Z,99789.66
2023-03-30T12:02:00.088Z,99802.95
2023-03-30T12:03:18.497Z,99794.14
2023-03-30T12:04:33.570Z,99798.55
2023-03-30T12:07:02.998Z,99801.43
2023-03-30T12:08:16.032Z,99803.06
2023-03-30T12:09:33.079Z,99799.62
2023-03-30T12:10:43.324Z,99795.02
2023-03-30T12:11:48.698Z,99793.30
2023-03-30T12:12:53.661Z,99795.02
2023-03-30T12:13:57.844Z,99784.18
2023-03-30T12:15:18.587Z,99791.38
2023-03-30T12:16:26.888Z,99783.22
2023-03-30T12:17:52.006Z,99776.98
2023-03-30T12:19:06.169Z,99785.81
2023-03-30T12:20:15.361Z,99805.55
2023-03-30T12:21:33.041Z,99799.22
2023-03-30T12:24:15.580Z,99802.39
2023-03-30T12:25:39.011Z,99794.61
2023-03-30T12:27:05.344Z,99796.53
2023-03-30T12:28:15.091Z,99790.80
2023-03-30T12:29:44.463Z,99788.23
2023-03-30T12:30:28.347Z,99784.79
2023-03-30T12:34:36.116Z,99794.73
2023-03-30T12:35:51.161Z,99775.91
2023-03-30T12:37:00.204Z,99778.59
2023-03-30T12:38:05.397Z,99781.27
2023-03-30T12:39:23.090Z,99782.11
2023-03-30T12:40:27.012Z,99783.83
2023-03-30T12:41:42.522Z,99796.27
2023-03-30T12:44:17.514Z,99779.37
2023-03-30T12:45:31.640Z,99770.20
2023-03-30T12:48:21.603Z,99775.61
2023-03-30T12:49:31.565Z,99771.04
2023-03-30T12:50:59.088Z,99771.04
2023-03-30T12:52:14.130Z,99779.08
2023-03-30T12:53:44.347Z,99776.22
2023-03-30T12:55:10.799Z,99790.09
2023-03-30T12:56:39.098Z,99782.39
2023-03-30T12:57:57.890Z,99778.34
2023-03-30T12:59:38.515Z,99783.39
2023-03-30T13:01:04.358Z,99781.79
2023-03-30T13:02:29.022Z,99773.10
2023-03-30T13:03:52.007Z,99772.37
2023-03-30T13:04:55.235Z,99774.29
2023-03-30T13:06:00.561Z,99773.45
2023-03-30T13:07:07.001Z,99779.76
2023-03-30T13:08:37.380Z,99759.18
2023-03-30T13:10:05.647Z,99766.25
2023-03-30T13:11:18.416Z,99765.18
2023-03-30T13:13:56.030Z,99763.45
2023-03-30T13:15:17.744Z,99768.62
2023-03-30T13:16:48.376Z,99766.79
2023-03-30T13:17:59.842Z,99765.72
2023-03-30T13:20:49.403Z,99760.95
2023-03-30T13:21:58.279Z,99766.86
2023-03-30T13:23:16.663Z,99755.91
2023-03-30T13:25:53.831Z,99754.78
2023-03-30T13:28:48.572Z,99760.78
2023-03-30T13:29:54.124Z,99754.29
2023-03-30T13:31:00.235Z,99757.70
2023-03-30T13:32:23.371Z,99754.78
2023-03-30T13:33:27.468Z,99751.91
2023-03-30T13:35:06.087Z,99747.27
2023-03-30T13:36:13.179Z,99758.75
2023-03-30T13:37:37.537Z,99746.92
2023-03-30T13:38:59.789Z,99746.83
2023-03-30T13:40:30.836Z,99746.71
2023-03-30T13:41:32.551Z,99742.20
2023-03-30T13:42:39.266Z,99742.08
2023-03-30T13:44:18.157Z,99739.40
2023-03-30T13:45:47.104Z,99735.75
2023-03-30T13:46:56.686Z,99737.36
2023-03-30T13:48:23.949Z,99734.56
2023-03-30T13:49:30.377Z,99729.08
2023-03-30T13:50:35.629Z,99737.97
2023-03-30T13:51:38.486Z,99733.36
2023-03-30T13:52:43.829Z,99734.20
2023-03-30T13:55:21.492Z,99728.70
2023-03-30T13:56:24.072Z,99730.23
2023-03-30T13:57:35.797Z,99721.23
2023-03-30T13:58:38.377Z,99729.99
2023-03-30T13:59:48.577Z,99727.23
2023-03-30T14:01:01.110Z,99720.75
2023-03-30T14:02:06.780Z,99728.70
2023-03-30T14:03:31.259Z,99733.08
2023-03-30T14:04:36.826Z,99734.67
2023-03-30T14:06:53.027Z,99730.09
2023-03-30T14:07:58.262Z,99723.70
2023-03-30T14:09:13.445Z,99725.42
2023-03-30T14:10:18.043Z,99721.66
2023-03-30T14:12:37.017Z,99725.13
2023-03-30T14:13:39.889Z,99728.50
2023-03-30T14:14:45.880Z,99721.30
2023-03-30T14:15:50.575Z,99722.05
2023-03-30T14:16:55.416Z,99720.21
2023-03-30T14:18:00.794Z,99719.25
2023-03-30T14:19:17.290Z,99703.03
2023-03-30T14:20:41.189Z,99711.80
2023-03-30T14:21:45.799Z,99710.71
2023-03-30T14:22:49.738Z,99719.63
2023-03-30T14:23:52.720Z,99716.83
2023-03-30T14:25:03.787Z,99714.14
2023-03-30T14:26:15.674Z,99713.15
2023-03-30T14:27:20.502Z,99705.98
2023-03-30T14:28:23.084Z,99712.19
2023-03-30T14:29:31.056Z,99706.70
2023-03-30T14:30:35.020Z,99710.25
2023-03-30T14:31:39.762Z,99699.52
2023-03-30T14:32:42.259Z,99711.94
2023-03-30T14:33:46.278Z,99706.48
2023-03-30T14:34:50.164Z,99701.00
2023-03-30T14:35:57.036Z,99703.55
2023-03-30T14:38:20.225Z,99698.08
2023-03-30T14:39:23.387Z,99699.78
2023-03-30T14:40:26.903Z,99696.10
2023-03-30T14:41:32.916Z,99693.30
2023-03-30T14:42:38.603Z,99702.22
2023-03-30T14:43:41.308Z,99698.57
2023-03-30T14:44:50.760Z,99702.94
2023-03-30T14:45:54.409Z,99704.66
2023-03-30T14:46:56.975Z,99697.45
2023-03-30T14:49:31.947Z,99689.44
2023-03-30T14:50:37.148Z,99695.52
2023-03-30T14:51:42.946Z,99685.62